sensor_id;sensor_type;location;lat;lon;timestamp;pressure;altitude;pressure_sealevel;temperature;humidity
2549;BME280;1284;53.520;10.248;2023-04-07T00:02:24;101063.56;;;9.13;49.55
2549;BME280;1284;53.520;10.248;2023-04-07T00:04:51;101060.97;;;9.41;49.59
2549;BME280;1284;53.520;10.248;2023-04-07T00:07:17;101061.88;;;9.45;49.55
2549;BME280;1284;53.520;10.248;2023-04-07T00:09:43;101064.13;;;9.43;49.31
2549;BME280;1284;53.520;10.248;2023-04-07T00:12:09;101062.47;;;9.38;49.47
2549;BME280;1284;53.520;10.248;2023-04-07T00:14:34;101061.31;;;9.39;49.64
2549;BME280;1284;53.520;10.248;2023-04-07T00:17:00;101055.19;;;9.27;49.70
2549;BME280;1284;53.520;10.248;2023-04-07T00:19:25;101062.22;;;9.31;50.21
2549;BME280;1284;53.520;10.248;2023-04-07T00:21:51;101061.66;;;9.26;49.36
2549;BME280;1284;53.520;10.248;2023-04-07T00:24:18;101068.59;;;9.15;49.91
2549;BME280;1284;53.520;10.248;2023-04-07T00:26:43;101057.19;;;9.05;50.30
2549;BME280;1284;53.520;10.248;2023-04-07T00:29:09;101065.91;;;9.02;50.20
2549;BME280;1284;53.520;10.248;2023-04-07T00:31:34;101071.16;;;8.99;50.54
2549;BME280;1284;53.520;10.248;2023-04-07T00:34:00;101061.22;;;9.12;50.05
2549;BME280;1284;53.520;10.248;2023-04-07T00:36:26;101063.66;;;9.04;50.41
2549;BME280;1284;53.520;10.248;2023-04-07T00:38:53;101059.97;;;9.09;50.16
2549;BME280;1284;53.520;10.248;2023-04-07T00:41:18;101066.16;;;9.09;50.59
2549;BME280;1284;53.520;10.248;2023-04-07T00:43:44;101055.25;;;8.94;50.35
2549;BME280;1284;53.520;10.248;2023-04-07T00:46:10;101060.75;;;8.97;50.00
2549;BME280;1284;53.520;10.248;2023-04-07T00:48:36;101058.13;;;8.77;50.66
2549;BME280;1284;53.520;10.248;2023-04-07T00:51:02;101058.72;;;8.94;50.55
2549;BME280;1284;53.520;10.248;2023-04-07T00:53:28;101054.03;;;9.03;50.28
2549;BME280;1284;53.520;10.248;2023-04-07T00:55:53;101054.50;;;9.05;50.75
2549;BME280;1284;53.520;10.248;2023-04-07T00:58:19;101060.41;;;8.99;50.14
2549;BME280;1284;53.520;10.248;2023-04-07T01:01:03;101055.38;;;8.97;50.51
2549;BME280;1284;53.520;10.248;2023-04-07T01:03:39;101061.63;;;8.89;50.68
2549;BME280;1284;53.520;10.248;2023-04-07T01:06:09;101057.94;;;8.94;50.81
2549;BME280;1284;53.520;10.248;2023-04-07T01:08:47;101055.13;;;8.78;51.39
2549;BME280;1284;53.520;10.248;2023-04-07T01:13:53;101060.44;;;8.66;51.42
2549;BME280;1284;53.520;10.248;2023-04-07T01:16:33;101059.19;;;8.64;51.52
2549;BME280;1284;53.520;10.248;2023-04-07T01:19:15;101055.13;;;8.78;50.91
2549;BME280;1284;53.520;10.248;2023-04-07T01:21:48;101056.91;;;8.42;51.54
2549;BME280;1284;53.520;10.248;2023-04-07T01:27:20;101049.16;;;8.40;51.96
2549;BME280;1284;53.520;10.248;2023-04-07T01:29:50;101056.34;;;8.48;51.74
2549;BME280;1284;53.520;10.248;2023-04-07T01:32:17;101054.28;;;8.12;52.39
2549;BME280;1284;53.520;10.248;2023-04-07T01:34:47;101053.63;;;7.95;53.30
2549;BME280;1284;53.520;10.248;2023-04-07T01:37:14;101046.75;;;8.06;52.51
2549;BME280;1284;53.520;10.248;2023-04-07T01:39:41;101049.53;;;7.97;52.73
2549;BME280;1284;53.520;10.248;2023-04-07T01:42:07;101047.16;;;8.16;52.40
2549;BME280;1284;53.520;10.248;2023-04-07T01:44:34;101048.13;;;8.12;52.75
2549;BME280;1284;53.520;10.248;2023-04-07T01:47:00;101054.41;;;8.16;52.74
2549;BME280;1284;53.520;10.248;2023-04-07T01:49:27;101055.34;;;8.20;52.83
2549;BME280;1284;53.520;10.248;2023-04-07T01:51:54;101048.91;;;7.92;52.55
2549;BME280;1284;53.520;10.248;2023-04-07T01:54:22;101050.22;;;8.06;52.49
2549;BME280;1284;53.520;10.248;2023-04-07T01:56:51;101050.69;;;8.08;52.43
2549;BME280;1284;53.520;10.248;2023-04-07T01:59:16;101047.34;;;8.11;52.24
2549;BME280;1284;53.520;10.248;2023-04-07T02:01:42;101045.25;;;8.17;52.65
2549;BME280;1284;53.520;10.248;2023-04-07T02:07:18;101053.84;;;8.10;52.64
2549;BME280;1284;53.520;10.248;2023-04-07T02:09:48;101049.44;;;8.06;52.31
2549;BME280;1284;53.520;10.248;2023-04-07T02:12:16;101051.72;;;7.75;53.38
2549;BME280;1284;53.520;10.248;2023-04-07T02:14:57;101052.97;;;7.77;52.91
2549;BME280;1284;53.520;10.248;2023-04-07T02:17:26;101054.94;;;7.89;53.17
2549;BME280;1284;53.520;10.248;2023-04-07T02:19:53;101050.50;;;7.93;52.66
2549;BME280;1284;53.520;10.248;2023-04-07T02:22:20;101046.31;;;7.83;52.64
2549;BME280;1284;53.520;10.248;2023-04-07T02:24:46;101050.88;;;7.83;53.11
2549;BME280;1284;53.520;10.248;2023-04-07T02:27:11;101054.22;;;7.80;52.93
2549;BME280;1284;53.520;10.248;2023-04-07T02:29:37;101053.88;;;7.81;53.17
2549;BME280;1284;53.520;10.248;2023-04-07T02:32:02;101051.78;;;7.66;53.40
2549;BME280;1284;53.520;10.248;2023-04-07T02:34:28;101056.59;;;7.52;53.76
2549;BME280;1284;53.520;10.248;2023-04-07T02:36:53;101061.28;;;7.55;53.94
2549;BME280;1284;53.520;10.248;2023-04-07T02:39:19;101055.22;;;7.67;53.49
2549;BME280;1284;53.520;10.248;2023-04-07T02:41:44;101067.53;;;7.68;53.09
2549;BME280;1284;53.520;10.248;2023-04-07T02:44:10;101062.91;;;7.77;52.74
2549;BME280;1284;53.520;10.248;2023-04-07T02:46:35;101066.66;;;7.55;53.13
2549;BME280;1284;53.520;10.248;2023-04-07T02:49:01;101065.44;;;7.53;53.11
2549;BME280;1284;53.520;10.248;2023-04-07T02:51:27;101061.88;;;7.61;53.17
2549;BME280;1284;53.520;10.248;2023-04-07T02:53:53;101069.53;;;7.50;53.10
2549;BME280;1284;53.520;10.248;2023-04-07T02:56:18;101065.22;;;7.58;52.95
2549;BME280;1284;53.520;10.248;2023-04-07T02:58:44;101060.53;;;7.55;52.74
2549;BME280;1284;53.520;10.248;2023-04-07T03:01:10;101056.84;;;7.59;52.79
2549;BME280;1284;53.520;10.248;2023-04-07T03:03:35;101063.03;;;7.80;52.63
2549;BME280;1284;53.520;10.248;2023-04-07T03:06:09;101064.84;;;7.68;52.65
2549;BME280;1284;53.520;10.248;2023-04-07T03:08:43;101060.13;;;7.65;52.57
2549;BME280;1284;53.520;10.248;2023-04-07T03:11:09;101062.31;;;7.42;53.13
2549;BME280;1284;53.520;10.248;2023-04-07T03:13:34;101061.34;;;7.47;53.19
2549;BME280;1284;53.520;10.248;2023-04-07T03:16:00;101050.91;;;7.24;53.34
2549;BME280;1284;53.520;10.248;2023-04-07T03:18:31;101060.94;;;7.36;52.74
2549;BME280;1284;53.520;10.248;2023-04-07T03:20:59;101052.28;;;7.60;52.51
2549;BME280;1284;53.520;10.248;2023-04-07T03:23:25;101063.22;;;7.55;52.86
2549;BME280;1284;53.520;10.248;2023-04-07T03:25:54;101063.59;;;7.65;52.41
2549;BME280;1284;53.520;10.248;2023-04-07T03:28:20;101065.50;;;7.65;52.73
2549;BME280;1284;53.520;10.248;2023-04-07T03:30:46;101063.19;;;7.25;53.05
2549;BME280;1284;53.520;10.248;2023-04-07T03:33:12;101062.59;;;7.49;52.80
2549;BME280;1284;53.520;10.248;2023-04-07T03:35:38;101059.06;;;7.57;52.66
2549;BME280;1284;53.520;10.248;2023-04-07T03:38:04;101068.38;;;7.60;52.82
2549;BME280;1284;53.520;10.248;2023-04-07T03:40:30;101062.97;;;7.68;52.44
2549;BME280;1284;53.520;10.248;2023-04-07T03:42:58;101070.94;;;7.48;52.73
2549;BME280;1284;53.520;10.248;2023-04-07T03:45:23;101066.34;;;7.57;52.95
2549;BME280;1284;53.520;10.248;2023-04-07T03:47:51;101077.66;;;7.62;52.73
2549;BME280;1284;53.520;10.248;2023-04-07T03:50:19;101071.25;;;7.55;52.54
2549;BME280;1284;53.520;10.248;2023-04-07T03:53:06;101077.19;;;7.60;52.27
2549;BME280;1284;53.520;10.248;2023-04-07T03:55:33;101075.09;;;7.45;52.48
2549;BME280;1284;53.520;10.248;2023-04-07T03:58:06;101077.00;;;7.36;52.85
2549;BME280;1284;53.520;10.248;2023-04-07T04:00:34;101086.53;;;7.16;53.09
2549;BME280;1284;53.520;10.248;2023-04-07T04:03:08;101079.06;;;7.30;53.17
2549;BME280;1284;53.520;10.248;2023-04-07T04:05:41;101089.59;;;7.36;52.41
2549;BME280;1284;53.520;10.248;2023-04-07T04:08:09;101085.94;;;7.49;52.42
2549;BME280;1284;53.520;10.248;2023-04-07T04:10:37;101082.13;;;7.50;52.73
2549;BME280;1284;53.520;10.248;2023-04-07T04:13:03;101092.94;;;7.62;52.20
2549;BME280;1284;53.520;10.248;2023-04-07T04:15:31;101091.91;;;7.46;52.16
2549;BME280;1284;53.520;10.248;2023-04-07T04:18:02;101103.19;;;7.30;52.87
2549;BME280;1284;53.520;10.248;2023-04-07T04:20:29;101106.06;;;7.25;52.92
2549;BME280;1284;53.520;10.248;2023-04-07T04:22:55;101105.44;;;7.20;53.09
2549;BME280;1284;53.520;10.248;2023-04-07T04:25:20;101106.97;;;7.29;52.82
2549;BME280;1284;53.520;10.248;2023-04-07T04:27:50;101113.16;;;7.13;53.52
2549;BME280;1284;53.520;10.248;2023-04-07T04:30:19;101101.47;;;7.26;53.13
2549;BME280;1284;53.520;10.248;2023-04-07T04:32:55;101107.28;;;7.28;52.83
2549;BME280;1284;53.520;10.248;2023-04-07T04:35:29;101103.19;;;7.30;52.98
2549;BME280;1284;53.520;10.248;2023-04-07T04:38:14;101113.53;;;7.41;52.75
2549;BME280;1284;53.520;10.248;2023-04-07T04:40:45;101116.66;;;7.05;53.15
2549;BME280;1284;53.520;10.248;2023-04-07T04:43:12;101115.44;;;6.94;53.71
2549;BME280;1284;53.520;10.248;2023-04-07T04:45:39;101124.25;;;6.94;53.91
2549;BME280;1284;53.520;10.248;2023-04-07T04:48:06;101119.59;;;7.20;53.40
2549;BME280;1284;53.520;10.248;2023-04-07T04:50:33;101127.81;;;7.15;53.38
2549;BME280;1284;53.520;10.248;2023-04-07T04:53:05;101123.25;;;7.07;53.41
2549;BME280;1284;53.520;10.248;2023-04-07T04:55:31;101127.53;;;6.91;53.63
2549;BME280;1284;53.520;10.248;2023-04-07T04:57:57;101131.97;;;6.87;53.92
2549;BME280;1284;53.520;10.248;2023-04-07T05:00:33;101135.09;;;6.98;53.74
2549;BME280;1284;53.520;10.248;2023-04-07T05:03:02;101138.84;;;7.14;53.34
2549;BME280;1284;53.520;10.248;2023-04-07T05:05:31;101139.00;;;7.09;53.79
2549;BME280;1284;53.520;10.248;2023-04-07T05:07:57;101139.16;;;7.12;53.91
2549;BME280;1284;53.520;10.248;2023-04-07T05:10:25;101146.88;;;7.14;53.83
2549;BME280;1284;53.520;10.248;2023-04-07T05:12:51;101136.47;;;7.21;53.90
2549;BME280;1284;53.520;10.248;2023-04-07T05:15:16;101144.97;;;7.23;53.49
2549;BME280;1284;53.520;10.248;2023-04-07T05:17:45;101153.44;;;7.34;53.32
2549;BME280;1284;53.520;10.248;2023-04-07T05:20:19;101149.09;;;7.12;53.66
2549;BME280;1284;53.520;10.248;2023-04-07T05:22:44;101162.91;;;7.22;53.60
2549;BME280;1284;53.520;10.248;2023-04-07T05:25:12;101159.09;;;7.32;53.13
2549;BME280;1284;53.520;10.248;2023-04-07T05:27:40;101160.56;;;7.21;53.46
2549;BME280;1284;53.520;10.248;2023-04-07T05:30:11;101163.06;;;7.26;53.35
2549;BME280;1284;53.520;10.248;2023-04-07T05:32:37;101168.00;;;7.15;54.02
2549;BME280;1284;53.520;10.248;2023-04-07T05:35:10;101165.63;;;7.14;54.00
2549;BME280;1284;53.520;10.248;2023-04-07T05:37:40;101167.03;;;7.20;54.37
2549;BME280;1284;53.520;10.248;2023-04-07T05:40:09;101167.66;;;7.08;54.41
2549;BME280;1284;53.520;10.248;2023-04-07T05:42:36;101173.66;;;7.14;54.37
2549;BME280;1284;53.520;10.248;2023-04-07T05:45:03;101166.28;;;7.02;54.63
2549;BME280;1284;53.520;10.248;2023-04-07T05:47:29;101169.72;;;7.11;54.62
2549;BME280;1284;53.520;10.248;2023-04-07T05:49:55;101174.75;;;7.13;54.79
2549;BME280;1284;53.520;10.248;2023-04-07T05:52:21;101175.69;;;7.08;54.64
2549;BME280;1284;53.520;10.248;2023-04-07T05:54:53;101174.31;;;7.02;54.78
2549;BME280;1284;53.520;10.248;2023-04-07T05:57:20;101175.69;;;7.17;54.46
2549;BME280;1284;53.520;10.248;2023-04-07T05:59:48;101178.97;;;7.31;54.24
2549;BME280;1284;53.520;10.248;2023-04-07T06:02:13;101191.06;;;7.46;53.58
2549;BME280;1284;53.520;10.248;2023-04-07T06:04:39;101199.44;;;7.36;53.82
2549;BME280;1284;53.520;10.248;2023-04-07T06:07:06;101197.22;;;7.38;53.81
2549;BME280;1284;53.520;10.248;2023-04-07T06:09:34;101191.84;;;7.46;54.13
2549;BME280;1284;53.520;10.248;2023-04-07T06:12:00;101192.66;;;7.38;54.10
2549;BME280;1284;53.520;10.248;2023-04-07T06:14:26;101205.44;;;7.41;53.61
2549;BME280;1284;53.520;10.248;2023-04-07T06:16:51;101191.06;;;7.46;53.42
2549;BME280;1284;53.520;10.248;2023-04-07T06:19:17;101205.25;;;7.46;53.76
2549;BME280;1284;53.520;10.248;2023-04-07T06:21:42;101198.75;;;7.56;53.99
2549;BME280;1284;53.520;10.248;2023-04-07T06:24:08;101214.28;;;7.71;53.86
2549;BME280;1284;53.520;10.248;2023-04-07T06:26:34;101214.19;;;7.59;53.73
2549;BME280;1284;53.520;10.248;2023-04-07T06:28:59;101216.91;;;7.88;52.78
2549;BME280;1284;53.520;10.248;2023-04-07T06:31:25;101215.53;;;7.82;52.37
2549;BME280;1284;53.520;10.248;2023-04-07T06:33:51;101222.34;;;8.08;52.81
2549;BME280;1284;53.520;10.248;2023-04-07T06:36:17;101223.28;;;8.12;52.29
2549;BME280;1284;53.520;10.248;2023-04-07T06:38:43;101235.19;;;8.32;52.23
2549;BME280;1284;53.520;10.248;2023-04-07T06:41:08;101228.13;;;8.48;51.40
2549;BME280;1284;53.520;10.248;2023-04-07T06:43:39;101236.38;;;8.43;50.67
2549;BME280;1284;53.520;10.248;2023-04-07T06:46:06;101239.00;;;8.72;50.53
2549;BME280;1284;53.520;10.248;2023-04-07T06:48:31;101238.47;;;8.99;49.62
2549;BME280;1284;53.520;10.248;2023-04-07T06:50:57;101240.56;;;9.15;49.80
2549;BME280;1284;53.520;10.248;2023-04-07T06:56:11;101243.16;;;9.68;48.57
2549;BME280;1284;53.520;10.248;2023-04-07T06:58:37;101237.38;;;9.90;48.53
2549;BME280;1284;53.520;10.248;2023-04-07T07:01:03;101244.41;;;10.07;48.02
2549;BME280;1284;53.520;10.248;2023-04-07T07:03:29;101247.38;;;10.26;47.73
2549;BME280;1284;53.520;10.248;2023-04-07T07:05:58;101238.97;;;10.27;47.75
2549;BME280;1284;53.520;10.248;2023-04-07T07:08:25;101246.56;;;10.49;46.35
2549;BME280;1284;53.520;10.248;2023-04-07T07:10:51;101245.66;;;10.45;46.02
2549;BME280;1284;53.520;10.248;2023-04-07T07:13:18;101259.69;;;10.51;46.32
2549;BME280;1284;53.520;10.248;2023-04-07T07:15:44;101248.13;;;10.62;46.42
2549;BME280;1284;53.520;10.248;2023-04-07T07:18:11;101249.84;;;10.82;46.05
2549;BME280;1284;53.520;10.248;2023-04-07T07:20:37;101247.69;;;10.88;45.45
2549;BME280;1284;53.520;10.248;2023-04-07T07:23:02;101254.13;;;11.11;45.99
2549;BME280;1284;53.520;10.248;2023-04-07T07:25:28;101258.13;;;11.45;45.14
2549;BME280;1284;53.520;10.248;2023-04-07T07:27:53;101260.16;;;11.63;44.91
2549;BME280;1284;53.520;10.248;2023-04-07T07:30:22;101261.00;;;11.95;43.70
2549;BME280;1284;53.520;10.248;2023-04-07T07:32:49;101260.81;;;12.19;43.80
2549;BME280;1284;53.520;10.248;2023-04-07T07:35:15;101264.13;;;11.97;43.49
2549;BME280;1284;53.520;10.248;2023-04-07T07:37:40;101268.13;;;12.19;43.22
2549;BME280;1284;53.520;10.248;2023-04-07T07:40:06;101271.25;;;12.36;42.81
2549;BME280;1284;53.520;10.248;2023-04-07T07:42:32;101272.84;;;12.56;42.96
2549;BME280;1284;53.520;10.248;2023-04-07T07:44:58;101275.28;;;12.61;42.15
2549;BME280;1284;53.520;10.248;2023-04-07T07:47:24;101274.03;;;12.94;42.59
2549;BME280;1284;53.520;10.248;2023-04-07T07:49:50;101283.28;;;13.08;41.92
2549;BME280;1284;53.520;10.248;2023-04-07T07:52:16;101292.94;;;13.28;41.27
2549;BME280;1284;53.520;10.248;2023-04-07T07:54:41;101291.50;;;13.34;40.48
2549;BME280;1284;53.520;10.248;2023-04-07T07:57:07;101293.84;;;13.36;40.19
2549;BME280;1284;53.520;10.248;2023-04-07T07:59:32;101289.31;;;13.21;41.28
2549;BME280;1284;53.520;10.248;2023-04-07T08:01:58;101286.59;;;13.21;41.62
2549;BME280;1284;53.520;10.248;2023-04-07T08:04:23;101298.22;;;13.21;41.86
2549;BME280;1284;53.520;10.248;2023-04-07T08:06:49;101293.16;;;13.20;40.36
2549;BME280;1284;53.520;10.248;2023-04-07T08:09:16;101303.25;;;13.42;41.72
2549;BME280;1284;53.520;10.248;2023-04-07T08:11:42;101299.88;;;13.68;40.99
2549;BME280;1284;53.520;10.248;2023-04-07T08:14:07;101307.31;;;13.93;40.98
2549;BME280;1284;53.520;10.248;2023-04-07T08:16:33;101309.59;;;13.91;39.84
2549;BME280;1284;53.520;10.248;2023-04-07T08:18:58;101302.53;;;14.09;40.25
2549;BME280;1284;53.520;10.248;2023-04-07T08:21:24;101311.66;;;14.46;40.46
2549;BME280;1284;53.520;10.248;2023-04-07T08:23:53;101309.22;;;14.38;38.94
2549;BME280;1284;53.520;10.248;2023-04-07T08:26:18;101314.69;;;14.68;39.83
2549;BME280;1284;53.520;10.248;2023-04-07T08:28:44;101306.63;;;15.01;39.56
2549;BME280;1284;53.520;10.248;2023-04-07T08:31:09;101311.47;;;15.18;38.14
2549;BME280;1284;53.520;10.248;2023-04-07T08:33:35;101308.13;;;15.28;38.38
2549;BME280;1284;53.520;10.248;2023-04-07T08:36:00;101299.38;;;15.12;37.72
2549;BME280;1284;53.520;10.248;2023-04-07T08:38:26;101306.41;;;15.43;38.43
2549;BME280;1284;53.520;10.248;2023-04-07T08:41:02;101310.19;;;15.71;37.81
2549;BME280;1284;53.520;10.248;2023-04-07T08:43:29;101310.63;;;15.77;37.75
2549;BME280;1284;53.520;10.248;2023-04-07T08:45:56;101309.59;;;15.92;37.85
2549;BME280;1284;53.520;10.248;2023-04-07T08:48:23;101324.91;;;16.10;36.46
2549;BME280;1284;53.520;10.248;2023-04-07T08:50:53;101314.47;;;16.16;36.94
2549;BME280;1284;53.520;10.248;2023-04-07T08:53:28;101318.31;;;16.11;37.10
2549;BME280;1284;53.520;10.248;2023-04-07T08:55:59;101318.66;;;16.06;36.36
2549;BME280;1284;53.520;10.248;2023-04-07T08:58:26;101324.22;;;16.24;36.69
2549;BME280;1284;53.520;10.248;2023-04-07T09:00:51;101320.44;;;16.36;35.61
2549;BME280;1284;53.520;10.248;2023-04-07T09:03:18;101319.09;;;16.08;36.19
2549;BME280;1284;53.520;10.248;2023-04-07T09:05:44;101311.53;;;15.91;36.37
2549;BME280;1284;53.520;10.248;2023-04-07T09:10:36;101310.78;;;15.54;36.05
2549;BME280;1284;53.520;10.248;2023-04-07T09:13:02;101318.94;;;15.94;36.95
2549;BME280;1284;53.520;10.248;2023-04-07T09:15:29;101317.13;;;16.09;36.44
2549;BME280;1284;53.520;10.248;2023-04-07T09:17:56;101322.84;;;16.44;35.94
2549;BME280;1284;53.520;10.248;2023-04-07T09:20:25;101321.88;;;16.70;35.10
2549;BME280;1284;53.520;10.248;2023-04-07T09:22:50;101317.63;;;16.72;35.36
2549;BME280;1284;53.520;10.248;2023-04-07T09:25:20;101315.81;;;16.40;34.37
2549;BME280;1284;53.520;10.248;2023-04-07T09:28:02;101322.88;;;16.48;34.83
2549;BME280;1284;53.520;10.248;2023-04-07T09:30:29;101315.16;;;16.53;34.73
2549;BME280;1284;53.520;10.248;2023-04-07T09:32:56;101314.72;;;16.48;34.44
2549;BME280;1284;53.520;10.248;2023-04-07T09:35:23;101317.19;;;16.67;34.57
2549;BME280;1284;53.520;10.248;2023-04-07T09:38:08;101312.63;;;16.81;35.41
2549;BME280;1284;53.520;10.248;2023-04-07T09:40:34;101312.72;;;16.95;34.90
2549;BME280;1284;53.520;10.248;2023-04-07T09:43:02;101317.88;;;17.25;33.89
2549;BME280;1284;53.520;10.248;2023-04-07T09:45:29;101319.53;;;17.47;33.52
2549;BME280;1284;53.520;10.248;2023-04-07T09:47:56;101312.56;;;17.53;32.97
2549;BME280;1284;53.520;10.248;2023-04-07T09:50:40;101309.28;;;17.16;32.87
2549;BME280;1284;53.520;10.248;2023-04-07T09:53:06;101314.81;;;17.30;34.25
2549;BME280;1284;53.520;10.248;2023-04-07T09:55:35;101310.16;;;17.38;32.96
2549;BME280;1284;53.520;10.248;2023-04-07T09:58:03;101306.66;;;17.37;32.57
2549;BME280;1284;53.520;10.248;2023-04-07T10:00:28;101315.47;;;17.09;32.54
2549;BME280;1284;53.520;10.248;2023-04-07T10:02:54;101305.09;;;17.36;33.13
2549;BME280;1284;53.520;10.248;2023-04-07T10:05:20;101312.19;;;17.62;33.32
2549;BME280;1284;53.520;10.248;2023-04-07T10:07:46;101307.16;;;17.85;32.32
2549;BME280;1284;53.520;10.248;2023-04-07T10:10:12;101308.72;;;17.89;32.01
2549;BME280;1284;53.520;10.248;2023-04-07T10:12:38;101318.84;;;17.92;31.87
2549;BME280;1284;53.520;10.248;2023-04-07T10:15:06;101317.72;;;18.08;31.82
2549;BME280;1284;53.520;10.248;2023-04-07T10:17:32;101317.69;;;17.93;33.43
2549;BME280;1284;53.520;10.248;2023-04-07T10:20:00;101304.84;;;17.76;32.38
2549;BME280;1284;53.520;10.248;2023-04-07T10:22:27;101305.22;;;17.92;32.45
2549;BME280;1284;53.520;10.248;2023-04-07T10:24:58;101307.19;;;18.02;32.73
2549;BME280;1284;53.520;10.248;2023-04-07T10:27:34;101316.13;;;18.31;31.79
2549;BME280;1284;53.520;10.248;2023-04-07T10:30:03;101310.31;;;17.97;31.09
2549;BME280;1284;53.520;10.248;2023-04-07T10:32:29;101310.28;;;17.80;32.41
2549;BME280;1284;53.520;10.248;2023-04-07T10:34:55;101300.13;;;17.66;32.37
2549;BME280;1284;53.520;10.248;2023-04-07T10:37:23;101296.50;;;17.27;33.23
2549;BME280;1284;53.520;10.248;2023-04-07T10:39:51;101297.78;;;17.54;32.98
2549;BME280;1284;53.520;10.248;2023-04-07T10:45:05;101309.53;;;17.93;32.11
2549;BME280;1284;53.520;10.248;2023-04-07T10:47:31;101316.53;;;18.16;31.79
2549;BME280;1284;53.520;10.248;2023-04-07T10:50:26;101311.81;;;17.74;32.33
2549;BME280;1284;53.520;10.248;2023-04-07T10:53:13;101315.34;;;17.85;31.54
2549;BME280;1284;53.520;10.248;2023-04-07T10:55:42;101322.00;;;18.05;30.63
2549;BME280;1284;53.520;10.248;2023-04-07T10:58:29;101311.88;;;18.30;30.84
2549;BME280;1284;53.520;10.248;2023-04-07T11:06:03;101313.00;;;18.29;31.83
2549;BME280;1284;53.520;10.248;2023-04-07T11:08:33;101320.44;;;18.64;32.25
2549;BME280;1284;53.520;10.248;2023-04-07T11:10:59;101318.84;;;18.70;31.20
2549;BME280;1284;53.520;10.248;2023-04-07T11:13:25;101311.75;;;19.04;31.26
2549;BME280;1284;53.520;10.248;2023-04-07T11:15:51;101305.91;;;18.95;31.38
2549;BME280;1284;53.520;10.248;2023-04-07T11:18:19;101314.88;;;19.03;31.94
2549;BME280;1284;53.520;10.248;2023-04-07T11:20:53;101312.13;;;19.06;31.49
2549;BME280;1284;53.520;10.248;2023-04-07T11:23:21;101313.25;;;19.16;31.47
2549;BME280;1284;53.520;10.248;2023-04-07T11:25:49;101312.25;;;18.53;31.22
2549;BME280;1284;53.520;10.248;2023-04-07T11:28:15;101314.56;;;18.41;31.41
2549;BME280;1284;53.520;10.248;2023-04-07T11:30:49;101305.59;;;18.65;32.20
2549;BME280;1284;53.520;10.248;2023-04-07T11:33:17;101297.78;;;18.70;31.61
2549;BME280;1284;53.520;10.248;2023-04-07T11:35:54;101306.75;;;18.78;30.13
2549;BME280;1284;53.520;10.248;2023-04-07T11:38:23;101312.13;;;19.06;31.02
2549;BME280;1284;53.520;10.248;2023-04-07T11:40:49;101310.16;;;19.10;30.44
2549;BME280;1284;53.520;10.248;2023-04-07T11:43:18;101307.78;;;19.19;30.80
2549;BME280;1284;53.520;10.248;2023-04-07T11:45:44;101326.88;;;19.23;29.93
2549;BME280;1284;53.520;10.248;2023-04-07T11:48:27;101322.56;;;19.32;29.83
2549;BME280;1284;53.520;10.248;2023-04-07T11:50:53;101323.31;;;19.43;29.84
2549;BME280;1284;53.520;10.248;2023-04-07T11:53:29;101308.38;;;19.62;30.28
2549;BME280;1284;53.520;10.248;2023-04-07T11:56:02;101321.56;;;19.70;30.55
2549;BME280;1284;53.520;10.248;2023-04-07T11:58:28;101314.03;;;19.16;30.96
2549;BME280;1284;53.520;10.248;2023-04-07T12:00:58;101312.38;;;19.43;31.57
2549;BME280;1284;53.520;10.248;2023-04-07T12:03:28;101325.41;;;18.97;31.08
2549;BME280;1284;53.520;10.248;2023-04-07T12:05:54;101317.53;;;19.13;31.60
2549;BME280;1284;53.520;10.248;2023-04-07T12:08:19;101317.84;;;19.43;32.26
2549;BME280;1284;53.520;10.248;2023-04-07T12:10:46;101317.84;;;19.40;31.57
2549;BME280;1284;53.520;10.248;2023-04-07T12:13:12;101326.47;;;19.31;31.62
2549;BME280;1284;53.520;10.248;2023-04-07T12:15:38;101324.22;;;19.05;31.78
2549;BME280;1284;53.520;10.248;2023-04-07T12:18:04;101314.03;;;19.13;31.88
2549;BME280;1284;53.520;10.248;2023-04-07T12:20:30;101311.38;;;18.95;31.14
2549;BME280;1284;53.520;10.248;2023-04-07T12:22:55;101322.22;;;19.13;31.92
2549;BME280;1284;53.520;10.248;2023-04-07T12:25:21;101324.47;;;19.32;31.37
2549;BME280;1284;53.520;10.248;2023-04-07T12:27:47;101323.72;;;19.38;31.32
2549;BME280;1284;53.520;10.248;2023-04-07T12:30:12;101321.81;;;19.21;31.61
2549;BME280;1284;53.520;10.248;2023-04-07T12:32:38;101318.66;;;19.26;31.97
2549;BME280;1284;53.520;10.248;2023-04-07T12:35:04;101322.59;;;19.18;32.66
2549;BME280;1284;53.520;10.248;2023-04-07T12:37:30;101319.97;;;18.93;32.28
2549;BME280;1284;53.520;10.248;2023-04-07T12:39:57;101312.50;;;19.01;32.87
2549;BME280;1284;53.520;10.248;2023-04-07T12:42:23;101330.81;;;19.11;32.96
2549;BME280;1284;53.520;10.248;2023-04-07T12:44:48;101328.47;;;19.13;32.96
2549;BME280;1284;53.520;10.248;2023-04-07T12:47:14;101316.00;;;19.05;32.62
2549;BME280;1284;53.520;10.248;2023-04-07T12:49:40;101328.09;;;19.08;32.68
2549;BME280;1284;53.520;10.248;2023-04-07T12:52:05;101325.00;;;18.95;32.11
2549;BME280;1284;53.520;10.248;2023-04-07T12:54:31;101329.69;;;19.02;31.55
2549;BME280;1284;53.520;10.248;2023-04-07T12:56:57;101319.56;;;19.02;31.19
2549;BME280;1284;53.520;10.248;2023-04-07T12:59:24;101325.44;;;18.86;30.12
2549;BME280;1284;53.520;10.248;2023-04-07T13:01:50;101322.28;;;18.99;30.99
2549;BME280;1284;53.520;10.248;2023-04-07T13:04:16;101312.53;;;18.98;31.32
2549;BME280;1284;53.520;10.248;2023-04-07T13:06:42;101312.97;;;18.82;31.60
2549;BME280;1284;53.520;10.248;2023-04-07T13:09:08;101327.44;;;18.75;31.71
2549;BME280;1284;53.520;10.248;2023-04-07T13:11:33;101324.34;;;18.35;32.80
2549;BME280;1284;53.520;10.248;2023-04-07T13:14:00;101321.97;;;18.12;33.75
2549;BME280;1284;53.520;10.248;2023-04-07T13:16:26;101315.00;;;18.11;32.96
2549;BME280;1284;53.520;10.248;2023-04-07T13:18:51;101312.63;;;18.24;34.00
2549;BME280;1284;53.520;10.248;2023-04-07T13:21:17;101319.66;;;18.11;34.52
2549;BME280;1284;53.520;10.248;2023-04-07T13:23:42;101314.19;;;17.86;34.41
2549;BME280;1284;53.520;10.248;2023-04-07T13:26:08;101312.63;;;17.88;35.01
2549;BME280;1284;53.520;10.248;2023-04-07T13:28:33;101311.84;;;17.95;34.61
2549;BME280;1284;53.520;10.248;2023-04-07T13:30:59;101313.03;;;18.08;34.25